»·PEaware :: HADAI KDEN-KTUS

HADAI :: KDEN-KTUS

FLIGHT INFORMATION

Flight Status: Arrived
Operator: Unknown
More flights by this operator :: More flights under this callsign
Pilot: Tamer M. (30101)
Aircraft: Cessna 700 Citation Longitude
(C700)
More flights by this aircraft type
Origin: KDEN Denver Intl
United States
Destination: KTUS Tucson Intl
United States
More flights between these airports :: More routes between these airports
Route: SMMUR2 DAAYE ABQ J13 TCS SSO ZONNA1
File this flight plan on PilotEdge
Remarks:
Altitude:
(Current/Filed)
24,000ft
Speed:
(Current/Filed)
450kts
Departed: 18-Dec-20 02:08 PM
Arrived: 18-Dec-20 04:05 PM
Distance/Time
Traveled:
555nm/1:57
Distance/Time
To Go:
Arrived

Flight Plot

Page will automatically refresh every two minutes.

Flight plan parsing failed; only flown route is shown


Map Options




Map Legend


Flown Route
Filed Route
Departure Airport
Arrival Airport
Navaid (VOR, NDB)
Fix

Horizontal Profiles

Position Reports

Time Latitude Longitude Heading Altitude Ground
Speed
18-Dec-20 13:37 39.838216 -104.664099 121 5418ft 1kts
18-Dec-20 13:38 39.838216 -104.664099 121 5418ft 1kts
18-Dec-20 13:39 39.838216 -104.664099 121 5418ft 1kts
18-Dec-20 13:40 39.838216 -104.664098 121 5418ft 0kts
18-Dec-20 13:41 39.838216 -104.664098 121 5418ft 0kts
18-Dec-20 13:42 39.838216 -104.664098 121 5418ft 0kts
18-Dec-20 13:43 39.838216 -104.664098 121 5418ft 0kts
18-Dec-20 13:44 39.838216 -104.664098 121 5418ft 0kts
18-Dec-20 13:45 39.838216 -104.664098 121 5418ft 0kts
18-Dec-20 13:46 39.838216 -104.664098 121 5418ft 0kts
18-Dec-20 13:47 39.838216 -104.664098 121 5418ft 0kts
18-Dec-20 13:48 39.838216 -104.664098 121 5418ft 0kts
18-Dec-20 13:49 39.838216 -104.664098 121 5418ft 0kts
18-Dec-20 13:50 39.838216 -104.664098 121 5418ft 0kts
18-Dec-20 13:51 39.838216 -104.664098 121 5418ft 0kts
18-Dec-20 13:52 39.838216 -104.664098 121 5418ft 0kts
18-Dec-20 13:53 39.838216 -104.664098 121 5418ft 0kts
18-Dec-20 13:54 39.838216 -104.664098 121 5418ft 0kts
18-Dec-20 13:55 39.838216 -104.664098 121 5418ft 0kts
18-Dec-20 13:56 39.838216 -104.664098 121 5418ft 0kts
18-Dec-20 13:57 39.838216 -104.664098 121 5418ft 0kts
18-Dec-20 13:58 39.838216 -104.664098 121 5418ft 0kts
18-Dec-20 13:59 39.838216 -104.664098 121 5418ft 0kts
18-Dec-20 14:00 39.839391 -104.663742 359 5417ft 15kts
18-Dec-20 14:01 39.837914 -104.662598 180 5418ft 9kts
18-Dec-20 14:02 39.835063 -104.662637 181 5424ft 13kts
18-Dec-20 14:03 39.830576 -104.662682 180 5435ft 16kts
18-Dec-20 14:04 39.828444 -104.662084 96 5439ft 0kts
18-Dec-20 14:05 39.828444 -104.662084 96 5439ft 0kts
18-Dec-20 14:06 39.828444 -104.662084 96 5439ft 0kts
18-Dec-20 14:07 39.833262 -104.660532 0 5430ft 109kts
18-Dec-20 14:08 39.887721 -104.657907 1 7918ft 255kts
18-Dec-20 14:09 39.962072 -104.651170 1 9989ft 285kts
18-Dec-20 14:10 40.039567 -104.627066 43 10000ft 304kts
18-Dec-20 14:11 40.064572 -104.527918 96 10011ft 298kts
18-Dec-20 14:12 40.044290 -104.424784 117 10013ft 294kts
18-Dec-20 14:13 39.999046 -104.334379 128 11559ft 335kts
18-Dec-20 14:14 39.941194 -104.231784 128 14587ft 364kts
18-Dec-20 14:15 39.879107 -104.123641 135 17604ft 383kts
18-Dec-20 14:16 39.781901 -104.097112 199 20580ft 378kts
18-Dec-20 14:17 39.700528 -104.181697 232 23093ft 402kts
18-Dec-20 14:18 39.630849 -104.292888 232 23152ft 397kts
18-Dec-20 14:19 39.561402 -104.402163 232 23160ft 393kts
18-Dec-20 14:20 39.491778 -104.511472 232 24100ft 402kts
18-Dec-20 14:22 39.421190 -104.621902 233 24164ft 398kts
18-Dec-20 14:23 39.351403 -104.730701 233 24153ft 393kts
18-Dec-20 14:24 39.281790 -104.838859 233 24163ft 393kts
18-Dec-20 14:25 39.212166 -104.946675 233 24157ft 393kts
18-Dec-20 14:26 39.143440 -105.055461 239 24162ft 391kts
18-Dec-20 14:27 39.056848 -105.138740 202 24129ft 406kts
18-Dec-20 14:28 38.948765 -105.177495 211 24134ft 401kts
18-Dec-20 14:29 38.851657 -105.246367 205 24128ft 405kts
18-Dec-20 14:30 38.751316 -105.311035 211 24118ft 413kts
18-Dec-20 14:31 38.648447 -105.377478 210 24128ft 414kts
18-Dec-20 14:32 38.545297 -105.445099 210 24163ft 417kts
18-Dec-20 14:33 38.442008 -105.512411 210 24153ft 418kts
18-Dec-20 14:34 38.337582 -105.577603 209 24159ft 418kts
18-Dec-20 14:35 38.233397 -105.642442 209 24152ft 418kts
18-Dec-20 14:36 38.128559 -105.707174 209 24117ft 420kts
18-Dec-20 14:37 38.024138 -105.771592 209 24177ft 417kts
18-Dec-20 14:38 37.912887 -105.815072 194 24188ft 425kts
18-Dec-20 14:39 37.800088 -105.856810 200 24182ft 422kts
18-Dec-20 14:40 37.687099 -105.896293 200 24186ft 422kts
18-Dec-20 14:41 37.574157 -105.937272 199 24184ft 422kts
18-Dec-20 14:42 37.461410 -105.977804 199 24106ft 422kts
18-Dec-20 14:42 37.367011 -106.011542 199 24104ft 423kts
18-Dec-20 14:43 37.253722 -106.052002 199 24098ft 423kts
18-Dec-20 14:44 37.140515 -106.092271 199 24103ft 423kts
18-Dec-20 14:45 37.027286 -106.132450 199 24104ft 423kts
18-Dec-20 14:46 36.914938 -106.172120 199 24097ft 418kts
18-Dec-20 14:47 36.803100 -106.211582 199 24105ft 418kts
18-Dec-20 14:48 36.691102 -106.250950 199 24106ft 419kts
18-Dec-20 14:49 36.578723 -106.290332 199 24108ft 419kts
18-Dec-20 14:50 36.466647 -106.329749 198 24102ft 419kts
18-Dec-20 14:51 36.354842 -106.368667 199 24126ft 418kts
18-Dec-20 14:52 36.242623 -106.407582 199 24130ft 418kts
18-Dec-20 14:53 36.130451 -106.446512 199 24110ft 418kts
18-Dec-20 14:54 36.018707 -106.484975 199 24132ft 419kts
18-Dec-20 14:55 35.906463 -106.523641 199 24135ft 418kts
18-Dec-20 14:56 35.793966 -106.562225 199 24130ft 421kts
18-Dec-20 14:57 35.681055 -106.600991 199 24125ft 421kts
18-Dec-20 14:58 35.567857 -106.639390 198 24142ft 421kts
18-Dec-20 14:59 35.454380 -106.677071 199 24129ft 421kts
18-Dec-20 15:00 35.341412 -106.715267 199 24125ft 422kts
18-Dec-20 15:01 35.234960 -106.751164 202 24146ft 374kts
18-Dec-20 15:02 35.134335 -106.785284 201 24162ft 375kts
18-Dec-20 15:03 35.033976 -106.818928 201 24153ft 375kts
18-Dec-20 15:04 34.931334 -106.845598 199 24164ft 377kts
18-Dec-20 15:05 34.828767 -106.873567 199 24153ft 378kts
18-Dec-20 15:06 34.726770 -106.900820 199 24161ft 376kts
18-Dec-20 15:07 34.624567 -106.928068 199 24155ft 376kts
18-Dec-20 15:08 34.522302 -106.955283 199 24155ft 376kts
18-Dec-20 15:09 34.420194 -106.982409 199 24157ft 376kts
18-Dec-20 15:10 34.317973 -107.009486 199 24158ft 376kts
18-Dec-20 15:11 34.214905 -107.036625 199 24112ft 378kts
18-Dec-20 15:12 34.111740 -107.063909 199 24104ft 379kts
18-Dec-20 15:13 34.008950 -107.090922 199 24099ft 378kts
18-Dec-20 15:14 33.905963 -107.117879 199 24107ft 377kts
18-Dec-20 15:15 33.802987 -107.144827 199 24104ft 378kts
18-Dec-20 15:16 33.698993 -107.172120 199 24097ft 382kts
18-Dec-20 15:17 33.595384 -107.200037 198 24101ft 383kts
18-Dec-20 15:18 33.491487 -107.227013 198 24103ft 382kts
18-Dec-20 15:19 33.387513 -107.253827 198 24101ft 382kts
18-Dec-20 15:20 33.285519 -107.286938 215 24094ft 371kts
18-Dec-20 15:21 33.234107 -107.389362 239 24059ft 365kts
18-Dec-20 15:22 33.182262 -107.493670 237 24064ft 365kts
18-Dec-20 15:23 33.128853 -107.596331 239 24074ft 366kts
18-Dec-20 15:24 33.076302 -107.700433 238 24076ft 366kts
18-Dec-20 15:25 33.023731 -107.804452 237 24096ft 367kts
18-Dec-20 15:26 32.971172 -107.907803 238 24147ft 367kts
18-Dec-20 15:27 32.918422 -108.011248 238 24154ft 364kts
18-Dec-20 15:28 32.865844 -108.114243 238 24167ft 365kts
18-Dec-20 15:29 32.813119 -108.217031 238 24146ft 364kts
18-Dec-20 15:30 32.760123 -108.320135 238 24157ft 365kts
18-Dec-20 15:31 32.707039 -108.423217 238 24152ft 359kts
18-Dec-20 15:32 32.654801 -108.524182 238 24156ft 360kts
18-Dec-20 15:33 32.602609 -108.624948 238 24159ft 360kts
18-Dec-20 15:34 32.550100 -108.725984 238 24155ft 359kts
18-Dec-20 15:35 32.497631 -108.826683 238 24159ft 359kts
18-Dec-20 15:36 32.445118 -108.927208 238 24154ft 359kts
18-Dec-20 15:37 32.392459 -109.027697 238 24158ft 359kts
18-Dec-20 15:38 32.339650 -109.128181 238 24149ft 360kts
18-Dec-20 15:39 32.286819 -109.228558 238 24158ft 359kts
18-Dec-20 15:40 32.252496 -109.333475 267 22663ft 330kts
18-Dec-20 15:41 32.264649 -109.441987 264 21151ft 328kts
18-Dec-20 15:42 32.250867 -109.548661 257 21142ft 328kts
18-Dec-20 15:43 32.236070 -109.654861 258 21111ft 327kts
18-Dec-20 15:44 32.220984 -109.761296 259 21127ft 328kts
18-Dec-20 15:45 32.206263 -109.867648 261 21127ft 328kts
18-Dec-20 15:46 32.203167 -109.972322 263 18257ft 304kts
18-Dec-20 15:47 32.197407 -110.073778 265 15655ft 317kts
18-Dec-20 15:48 32.192229 -110.176520 264 14076ft 314kts
18-Dec-20 15:49 32.186843 -110.280332 265 14014ft 317kts
18-Dec-20 15:50 32.154269 -110.373323 227 13500ft 314kts
18-Dec-20 15:51 32.083432 -110.430188 211 12008ft 277kts
18-Dec-20 15:52 32.016817 -110.470859 210 11982ft 271kts
18-Dec-20 15:53 31.949852 -110.511198 210 9824ft 264kts
18-Dec-20 15:54 31.884035 -110.552831 210 8007ft 269kts
18-Dec-20 15:55 31.830871 -110.607460 256 7971ft 235kts
18-Dec-20 15:56 31.848168 -110.680140 298 8019ft 241kts
18-Dec-20 15:57 31.900949 -110.724919 338 7624ft 222kts
18-Dec-20 15:58 31.955692 -110.748925 320 6681ft 205kts
18-Dec-20 15:59 31.993237 -110.796389 310 5676ft 177kts
18-Dec-20 16:00 32.021538 -110.829180 309 4897ft 137kts
18-Dec-20 16:01 32.048225 -110.860504 313 4152ft 133kts
18-Dec-20 16:02 32.074313 -110.890479 314 3475ft 124kts
18-Dec-20 16:03 32.098864 -110.919217 314 2712ft 118kts
18-Dec-20 16:04 32.112593 -110.935265 316 2617ft 37kts
18-Dec-20 16:05 32.114803 -110.936486 45 2611ft 0kts
18-Dec-20 16:06 32.117182 -110.938191 315 2601ft 18kts
18-Dec-20 16:07 32.121034 -110.942720 315 2596ft 20kts
18-Dec-20 16:08 32.125243 -110.947085 36 2576ft 20kts
18-Dec-20 16:09 32.126047 -110.945792 252 2574ft 3kts
18-Dec-20 16:10 32.125642 -110.945655 233 2576ft 0kts
18-Dec-20 16:11 32.125667 -110.945675 218 2576ft 0kts
18-Dec-20 16:12 32.125615 -110.945726 223 2576ft 0kts

Navigation Log

Ident Type
Flight plan parsing failed, navigation log unavailable